createdAt,value
2017-01-25T00:00:28.953Z,1026.24
2017-01-25T00:01:40.397Z,1026.23
2017-01-25T00:02:51.998Z,1026.2
2017-01-25T00:04:03.398Z,1026.25
2017-01-25T00:05:14.822Z,1026.27
2017-01-25T00:06:26.226Z,1026.31
2017-01-25T00:07:37.672Z,1026.26
2017-01-25T00:08:49.269Z,1026.27
2017-01-25T00:10:00.674Z,1026.3
2017-01-25T00:11:12.071Z,1026.25
2017-01-25T00:12:23.470Z,1026.24
2017-01-25T00:13:35.315Z,1026.25
2017-01-25T00:14:46.908Z,1026.25
2017-01-25T00:15:58.297Z,1026.27
2017-01-25T00:17:09.691Z,1026.27
2017-01-25T00:18:21.084Z,1026.24
2017-01-25T00:19:32.552Z,1026.25
2017-01-25T00:20:43.959Z,1026.23
2017-01-25T00:21:55.357Z,1026.27
2017-01-25T00:23:06.747Z,1026.22
2017-01-25T00:24:18.142Z,1026.24
2017-01-25T00:25:29.589Z,1026.22
2017-01-25T00:26:41.013Z,1026.19
2017-01-25T00:27:52.408Z,1026.2
2017-01-25T00:29:03.814Z,1026.2
2017-01-25T00:30:15.198Z,1026.26
2017-01-25T00:31:26.644Z,1026.31
2017-01-25T00:32:38.037Z,1026.29
2017-01-25T00:33:49.433Z,1026.33
2017-01-25T00:35:00.834Z,1026.28
2017-01-25T00:36:12.280Z,1026.25
2017-01-25T00:37:23.720Z,1026.29
2017-01-25T00:38:35.124Z,1026.32
2017-01-25T00:39:46.512Z,1026.31
2017-01-25T00:40:57.913Z,1026.34
2017-01-25T00:42:09.315Z,1026.38
2017-01-25T00:43:20.955Z,1026.41
2017-01-25T00:44:32.357Z,1026.41
2017-01-25T00:45:43.747Z,1026.42
2017-01-25T00:46:55.146Z,1026.45
2017-01-25T00:48:06.767Z,1026.42
2017-01-25T00:49:18.210Z,1026.38
2017-01-25T00:50:29.608Z,1026.47
2017-01-25T00:51:41.003Z,1026.41
2017-01-25T00:52:52.405Z,1026.38
2017-01-25T00:54:03.804Z,1026.35
2017-01-25T00:55:15.264Z,1026.39
2017-01-25T00:56:26.864Z,1026.37
2017-01-25T00:57:38.256Z,1026.39
2017-01-25T00:58:49.653Z,1026.38
2017-01-25T01:00:01.044Z,1026.41
2017-01-25T01:01:12.493Z,1026.42
2017-01-25T01:02:24.088Z,1026.37
2017-01-25T01:03:35.479Z,1026.43
2017-01-25T01:04:46.877Z,1026.43
2017-01-25T01:05:58.305Z,1026.47
2017-01-25T01:07:09.953Z,1026.46
2017-01-25T01:08:21.346Z,1026.46
2017-01-25T01:09:32.965Z,1026.54
2017-01-25T01:10:44.366Z,1026.53
2017-01-25T01:11:56.191Z,1026.58
2017-01-25T01:13:07.633Z,1026.53
2017-01-25T01:14:19.053Z,1026.51
2017-01-25T01:15:30.447Z,1026.54
2017-01-25T01:16:41.845Z,1026.52
2017-01-25T01:17:53.437Z,1026.5
2017-01-25T01:19:04.889Z,1026.53
2017-01-25T01:20:16.287Z,1026.52
2017-01-25T01:21:27.684Z,1026.52
2017-01-25T01:22:39.070Z,1026.47
2017-01-25T01:23:50.459Z,1026.53
2017-01-25T01:25:01.904Z,1026.45
2017-01-25T01:26:13.503Z,1026.48
2017-01-25T01:27:24.899Z,1026.46
2017-01-25T01:28:36.293Z,1026.48
2017-01-25T01:29:47.685Z,1026.47
2017-01-25T01:30:59.127Z,1026.47
2017-01-25T01:32:10.514Z,1026.46
2017-01-25T01:33:21.906Z,1026.45
2017-01-25T01:34:33.301Z,1026.42
2017-01-25T01:35:44.896Z,1026.42
2017-01-25T01:36:56.344Z,1026.43
2017-01-25T01:38:07.939Z,1026.41
2017-01-25T01:39:19.334Z,1026.42
2017-01-25T01:40:31.445Z,1026.36
2017-01-25T01:41:42.867Z,1026.38
2017-01-25T01:42:54.310Z,1026.37
2017-01-25T01:44:05.701Z,1026.35
2017-01-25T01:45:17.296Z,1026.29
2017-01-25T01:46:28.686Z,1026.21
2017-01-25T01:47:40.082Z,1026.21
2017-01-25T01:48:51.522Z,1026.23
2017-01-25T01:50:02.915Z,1026.25
2017-01-25T01:51:14.317Z,1026.21
2017-01-25T01:52:25.709Z,1026.22
2017-01-25T01:53:37.098Z,1026.25
2017-01-25T01:54:48.542Z,1026.27
2017-01-25T01:55:59.942Z,1026.27
2017-01-25T01:57:11.337Z,1026.3
2017-01-25T01:58:22.732Z,1026.32
2017-01-25T01:59:34.328Z,1026.29
2017-01-25T02:00:45.972Z,1026.3
2017-01-25T02:01:57.367Z,1026.27
2017-01-25T02:03:08.769Z,1026.29
2017-01-25T02:04:20.163Z,1026.3
2017-01-25T02:05:31.558Z,1026.26
2017-01-25T02:06:43.002Z,1026.27
2017-01-25T02:07:54.591Z,1026.27
2017-01-25T02:09:06.195Z,1026.31
2017-01-25T02:10:17.588Z,1026.33
2017-01-25T02:11:28.975Z,1026.33
2017-01-25T02:12:40.421Z,1026.36
2017-01-25T02:13:51.804Z,1026.39
2017-01-25T02:15:03.203Z,1026.38
2017-01-25T02:16:14.832Z,1026.46
2017-01-25T02:17:26.228Z,1026.41
2017-01-25T02:18:37.674Z,1026.45
2017-01-25T02:19:49.262Z,1026.53
2017-01-25T02:21:00.657Z,1026.52
2017-01-25T02:22:12.050Z,1026.54
2017-01-25T02:23:23.441Z,1026.59
2017-01-25T02:24:34.888Z,1026.56
2017-01-25T02:25:46.278Z,1026.6
2017-01-25T02:26:57.675Z,1026.58
2017-01-25T02:28:09.069Z,1026.57
2017-01-25T02:29:20.661Z,1026.52
2017-01-25T02:30:32.099Z,1026.53
2017-01-25T02:31:43.503Z,1026.54
2017-01-25T02:32:54.911Z,1026.54
2017-01-25T02:34:06.495Z,1026.54
2017-01-25T02:35:17.879Z,1026.57
2017-01-25T02:36:29.513Z,1026.58
2017-01-25T02:37:40.894Z,1026.59
2017-01-25T02:38:52.269Z,1026.54
2017-01-25T02:40:03.854Z,1026.52
2017-01-25T02:41:15.234Z,1026.54
2017-01-25T02:42:26.856Z,1026.55
2017-01-25T02:43:38.238Z,1026.53
2017-01-25T02:44:49.621Z,1026.52
2017-01-25T02:46:00.995Z,1026.52
2017-01-25T02:47:12.371Z,1026.51
2017-01-25T02:48:23.802Z,1026.48
2017-01-25T02:49:35.384Z,1026.5
2017-01-25T02:50:46.962Z,1026.52
2017-01-25T02:51:58.542Z,1026.46
2017-01-25T02:53:09.926Z,1026.5
2017-01-25T02:54:21.565Z,1026.5
2017-01-25T02:55:32.947Z,1026.47
2017-01-25T02:56:44.356Z,1026.49
2017-01-25T02:57:55.742Z,1026.45
2017-01-25T02:59:07.119Z,1026.43
2017-01-25T03:00:18.551Z,1026.42
2017-01-25T03:01:30.128Z,1026.35
2017-01-25T03:02:41.926Z,1026.32
2017-01-25T03:03:53.308Z,1026.31
2017-01-25T03:05:04.740Z,1026.32
2017-01-25T03:06:16.375Z,1026.35
2017-01-25T03:07:27.761Z,1026.37
2017-01-25T03:08:39.136Z,1026.36
2017-01-25T03:09:50.523Z,1026.37
2017-01-25T03:11:01.911Z,1026.34
2017-01-25T03:12:13.349Z,1026.36
2017-01-25T03:13:24.727Z,1026.34
2017-01-25T03:14:36.104Z,1026.35
2017-01-25T03:15:47.677Z,1026.35
2017-01-25T03:16:59.059Z,1026.35
2017-01-25T03:18:10.490Z,1026.38
2017-01-25T03:19:21.865Z,1026.45
2017-01-25T03:20:33.245Z,1026.43
2017-01-25T03:21:44.631Z,1026.43
2017-01-25T03:22:56.014Z,1026.43
2017-01-25T03:24:07.441Z,1026.38
2017-01-25T03:25:18.819Z,1026.33
2017-01-25T03:26:30.197Z,1026.31
2017-01-25T03:27:41.580Z,1026.35
2017-01-25T03:28:53.162Z,1026.36
2017-01-25T03:30:04.816Z,1026.34
2017-01-25T03:31:16.190Z,1026.36
2017-01-25T03:32:27.577Z,1026.38
2017-01-25T03:33:38.956Z,1026.37
2017-01-25T03:34:50.732Z,1026.37
2017-01-25T03:36:02.369Z,1026.37
2017-01-25T03:37:13.744Z,1026.32
2017-01-25T03:38:25.325Z,1026.34
2017-01-25T03:39:36.704Z,1026.33
2017-01-25T03:40:48.278Z,1026.33
2017-01-25T03:41:59.708Z,1026.35
2017-01-25T03:43:11.313Z,1026.36
2017-01-25T03:44:22.895Z,1026.39
2017-01-25T03:45:34.277Z,1026.36
2017-01-25T03:46:45.664Z,1026.35
2017-01-25T03:47:57.118Z,1026.35
2017-01-25T03:49:08.525Z,1026.35
2017-01-25T03:50:19.906Z,1026.39
2017-01-25T03:51:31.288Z,1026.41
2017-01-25T03:52:42.868Z,1026.41
2017-01-25T03:53:54.297Z,1026.41
2017-01-25T03:55:05.705Z,1026.43
2017-01-25T03:56:17.077Z,1026.39
2017-01-25T03:57:28.455Z,1026.36
2017-01-25T03:58:39.850Z,1026.36
2017-01-25T03:59:51.307Z,1026.3
2017-01-25T04:01:02.692Z,1026.33
2017-01-25T04:02:14.477Z,1026.28
2017-01-25T04:03:25.865Z,1026.29
2017-01-25T04:04:37.244Z,1026.32
2017-01-25T04:05:48.674Z,1026.25
2017-01-25T04:07:00.058Z,1026.27
2017-01-25T04:08:11.446Z,1026.29
2017-01-25T04:09:23.029Z,1026.34
2017-01-25T04:10:34.817Z,1026.31
2017-01-25T04:11:46.249Z,1026.35
2017-01-25T04:12:57.622Z,1026.32
2017-01-25T04:14:09.004Z,1026.39
2017-01-25T04:15:20.383Z,1026.42
2017-01-25T04:16:31.965Z,1026.41
2017-01-25T04:17:43.398Z,1026.44
2017-01-25T04:18:54.981Z,1026.41
2017-01-25T04:20:06.365Z,1026.46
2017-01-25T04:21:17.754Z,1026.42
2017-01-25T04:22:29.137Z,1026.45
2017-01-25T04:23:40.564Z,1026.46
2017-01-25T04:24:51.945Z,1026.49
2017-01-25T04:26:03.326Z,1026.55
2017-01-25T04:27:14.905Z,1026.48
2017-01-25T04:28:26.311Z,1026.49
2017-01-25T04:29:37.734Z,1026.5
2017-01-25T04:30:49.120Z,1026.54
2017-01-25T04:32:00.500Z,1026.54
2017-01-25T04:33:12.083Z,1026.56
2017-01-25T04:34:23.462Z,1026.56
2017-01-25T04:35:35.094Z,1026.55
2017-01-25T04:36:46.480Z,1026.56
2017-01-25T04:37:57.863Z,1026.57
2017-01-25T04:39:09.247Z,1026.6
2017-01-25T04:40:20.632Z,1026.61
2017-01-25T04:41:32.055Z,1026.64
2017-01-25T04:42:43.433Z,1026.64
2017-01-25T04:43:54.818Z,1026.72
2017-01-25T04:45:06.600Z,1026.72
2017-01-25T04:46:17.981Z,1026.69
2017-01-25T04:47:29.413Z,1026.65
2017-01-25T04:48:40.789Z,1026.65
2017-01-25T04:49:52.569Z,1026.64
2017-01-25T04:51:03.949Z,1026.68
2017-01-25T04:52:15.333Z,1026.6
2017-01-25T04:53:26.765Z,1026.65
2017-01-25T04:54:38.139Z,1026.68
2017-01-25T04:55:49.517Z,1026.67
2017-01-25T04:57:01.123Z,1026.7
2017-01-25T04:58:12.706Z,1026.69
2017-01-25T04:59:24.142Z,1026.69
2017-01-25T05:00:35.525Z,1026.71
2017-01-25T05:01:46.909Z,1026.71
2017-01-25T05:02:58.317Z,1026.67
2017-01-25T05:04:09.697Z,1026.68
2017-01-25T05:05:21.119Z,1026.69
2017-01-25T05:06:32.495Z,1026.64
2017-01-25T05:07:44.132Z,1026.63
2017-01-25T05:08:55.533Z,1026.67
2017-01-25T05:10:06.915Z,1026.63
2017-01-25T05:11:18.353Z,1026.6
2017-01-25T05:12:29.732Z,1026.62
2017-01-25T05:13:41.156Z,1026.57
2017-01-25T05:14:52.747Z,1026.56
2017-01-25T05:16:04.123Z,1026.59
2017-01-25T05:17:15.553Z,1026.56
2017-01-25T05:18:27.138Z,1026.62
2017-01-25T05:19:38.525Z,1026.63
2017-01-25T05:20:49.910Z,1026.62
2017-01-25T05:22:01.293Z,1026.67
2017-01-25T05:23:12.725Z,1026.65
2017-01-25T05:24:24.110Z,1026.66
2017-01-25T05:25:35.694Z,1026.58
2017-01-25T05:26:47.078Z,1026.65
2017-01-25T05:27:58.452Z,1026.67
2017-01-25T05:29:09.883Z,1026.68
2017-01-25T05:30:21.263Z,1026.74
2017-01-25T05:31:32.649Z,1026.7
2017-01-25T05:32:44.051Z,1026.7
2017-01-25T05:33:55.462Z,1026.72
2017-01-25T05:35:06.893Z,1026.68
2017-01-25T05:36:18.269Z,1026.71
2017-01-25T05:37:29.678Z,1026.69
2017-01-25T05:38:41.060Z,1026.69
2017-01-25T05:39:52.453Z,1026.69
2017-01-25T05:41:04.091Z,1026.7
2017-01-25T05:42:15.475Z,1026.73
2017-01-25T05:43:26.880Z,1026.69
2017-01-25T05:44:38.259Z,1026.72
2017-01-25T05:45:49.641Z,1026.74
2017-01-25T05:47:01.073Z,1026.71
2017-01-25T05:48:12.453Z,1026.74
2017-01-25T05:49:23.837Z,1026.73
2017-01-25T05:50:35.214Z,1026.7
2017-01-25T05:51:46.601Z,1026.7
2017-01-25T05:52:58.042Z,1026.68
2017-01-25T05:54:09.417Z,1026.67
2017-01-25T05:55:20.812Z,1026.68
2017-01-25T05:56:32.193Z,1026.7
2017-01-25T05:57:43.786Z,1026.72
2017-01-25T05:58:55.222Z,1026.74
2017-01-25T06:00:06.619Z,1026.68
2017-01-25T06:01:18.016Z,1026.7
2017-01-25T06:02:29.408Z,1026.72
2017-01-25T06:03:40.805Z,1026.81
2017-01-25T06:04:52.242Z,1026.77
2017-01-25T06:06:03.640Z,1026.8
2017-01-25T06:07:15.033Z,1026.73
2017-01-25T06:08:26.418Z,1026.75
2017-01-25T06:09:37.813Z,1026.79
2017-01-25T06:10:49.250Z,1026.8
2017-01-25T06:12:00.638Z,1026.83
2017-01-25T06:13:12.236Z,1026.8
2017-01-25T06:14:24.035Z,1026.79
2017-01-25T06:15:35.433Z,1026.86
2017-01-25T06:16:47.077Z,1026.87
2017-01-25T06:17:58.481Z,1026.79
2017-01-25T06:19:09.897Z,1026.87
2017-01-25T06:20:21.302Z,1026.79
2017-01-25T06:21:32.693Z,1026.8
2017-01-25T06:22:44.141Z,1026.85
2017-01-25T06:23:55.529Z,1026.84
2017-01-25T06:25:06.919Z,1026.85
2017-01-25T06:26:18.311Z,1026.91
2017-01-25T06:27:29.702Z,1026.91
2017-01-25T06:28:41.148Z,1026.86
2017-01-25T06:29:52.539Z,1026.87
2017-01-25T06:31:04.130Z,1026.9
2017-01-25T06:32:15.526Z,1026.91
2017-01-25T06:33:26.922Z,1026.9
2017-01-25T06:34:38.553Z,1026.9
2017-01-25T06:35:49.942Z,1026.95
2017-01-25T06:37:01.348Z,1026.98
2017-01-25T06:38:12.727Z,1026.97
2017-01-25T06:39:24.120Z,1026.96
2017-01-25T06:40:35.517Z,1026.94
2017-01-25T06:41:47.113Z,1026.93
2017-01-25T06:42:58.708Z,1026.95
2017-01-25T06:44:10.100Z,1026.94
2017-01-25T06:45:21.499Z,1026.97
2017-01-25T06:46:32.936Z,1027.02
2017-01-25T06:47:44.326Z,1027.01
2017-01-25T06:48:55.710Z,1027
2017-01-25T06:50:07.109Z,1027
2017-01-25T06:51:18.551Z,1027.01
2017-01-25T06:52:29.940Z,1027.07
2017-01-25T06:53:41.330Z,1027.09
2017-01-25T06:54:52.720Z,1027.05
2017-01-25T06:56:04.117Z,1027.06
2017-01-25T06:57:15.557Z,1027.13
2017-01-25T06:58:27.156Z,1027.14
2017-01-25T06:59:38.552Z,1027.16
2017-01-25T07:00:49.941Z,1027.18
2017-01-25T07:02:01.338Z,1027.17
2017-01-25T07:03:12.780Z,1027.19
2017-01-25T07:04:24.170Z,1027.15
2017-01-25T07:05:35.768Z,1027.21
2017-01-25T07:06:47.164Z,1027.21
2017-01-25T07:07:58.561Z,1027.24
2017-01-25T07:09:09.999Z,1027.31
2017-01-25T07:10:21.389Z,1027.24
2017-01-25T07:11:32.794Z,1027.25
2017-01-25T07:12:44.188Z,1027.21
2017-01-25T07:13:55.575Z,1027.19
2017-01-25T07:15:06.967Z,1027.24
2017-01-25T07:16:18.362Z,1027.3
2017-01-25T07:17:29.751Z,1027.26
2017-01-25T07:18:41.139Z,1027.28
2017-01-25T07:19:52.584Z,1027.26
2017-01-25T07:21:03.965Z,1027.32
2017-01-25T07:22:15.354Z,1027.32
2017-01-25T07:23:26.952Z,1027.35
2017-01-25T07:24:38.589Z,1027.36
2017-01-25T07:25:50.188Z,1027.34
2017-01-25T07:27:01.575Z,1027.34
2017-01-25T07:28:13.174Z,1027.41
2017-01-25T07:29:24.767Z,1027.39
2017-01-25T07:30:36.405Z,1027.43
2017-01-25T07:31:47.800Z,1027.4
2017-01-25T07:32:59.184Z,1027.42
2017-01-25T07:34:10.578Z,1027.46
2017-01-25T07:35:22.165Z,1027.44
2017-01-25T07:36:33.607Z,1027.46
2017-01-25T07:37:45.200Z,1027.44
2017-01-25T07:38:56.590Z,1027.43
2017-01-25T07:40:08.182Z,1027.43
2017-01-25T07:41:19.580Z,1027.41
2017-01-25T07:42:31.028Z,1027.42
2017-01-25T07:43:42.420Z,1027.41
2017-01-25T07:44:53.813Z,1027.39
2017-01-25T07:46:05.201Z,1027.41
2017-01-25T07:47:16.591Z,1027.4
2017-01-25T07:48:28.040Z,1027.42
2017-01-25T07:49:39.640Z,1027.41
2017-01-25T07:50:51.051Z,1027.44
2017-01-25T07:52:02.439Z,1027.43
2017-01-25T07:53:14.035Z,1027.46
2017-01-25T07:54:25.482Z,1027.45
2017-01-25T07:55:36.869Z,1027.43
2017-01-25T07:56:48.259Z,1027.47
2017-01-25T07:57:59.661Z,1027.49
2017-01-25T07:59:11.064Z,1027.48
2017-01-25T08:00:22.507Z,1027.47
2017-01-25T08:01:33.903Z,1027.5
2017-01-25T08:02:45.297Z,1027.52
2017-01-25T08:03:56.685Z,1027.53
2017-01-25T08:05:08.077Z,1027.57
2017-01-25T08:06:19.923Z,1027.52
2017-01-25T08:07:31.324Z,1027.6
2017-01-25T08:08:42.937Z,1027.62
2017-01-25T08:09:54.335Z,1027.65
2017-01-25T08:11:05.723Z,1027.64
2017-01-25T08:12:17.571Z,1027.68
2017-01-25T08:13:28.954Z,1027.74
2017-01-25T08:14:40.353Z,1027.73
2017-01-25T08:15:51.745Z,1027.76
2017-01-25T08:17:03.342Z,1027.77
2017-01-25T08:18:15.009Z,1027.79
2017-01-25T08:19:26.398Z,1027.8
2017-01-25T08:20:37.787Z,1027.82
2017-01-25T08:21:49.185Z,1027.83
2017-01-25T08:23:00.581Z,1027.82
2017-01-25T08:24:12.223Z,1027.85
2017-01-25T08:25:23.624Z,1027.84
2017-01-25T08:26:35.020Z,1027.83
2017-01-25T08:27:46.618Z,1027.85
2017-01-25T08:28:58.018Z,1027.81
2017-01-25T08:30:09.482Z,1027.85
2017-01-25T08:31:20.872Z,1027.86
2017-01-25T08:32:32.265Z,1027.84
2017-01-25T08:33:43.856Z,1027.8
2017-01-25T08:34:55.259Z,1027.8
2017-01-25T08:36:06.711Z,1027.8
2017-01-25T08:37:18.306Z,1027.81
2017-01-25T08:38:29.922Z,1027.83
2017-01-25T08:39:41.321Z,1027.85
2017-01-25T08:40:52.710Z,1027.87
2017-01-25T08:42:04.163Z,1027.87
2017-01-25T08:43:15.557Z,1027.91
2017-01-25T08:44:26.947Z,1027.92
2017-01-25T08:45:38.341Z,1027.92
2017-01-25T08:46:49.729Z,1027.91
2017-01-25T08:48:01.181Z,1027.94
2017-01-25T08:49:12.582Z,1027.94
2017-01-25T08:50:23.975Z,1027.95
2017-01-25T08:51:35.574Z,1027.99
2017-01-25T08:52:46.970Z,1028
2017-01-25T08:53:58.848Z,1027.94
2017-01-25T08:55:10.239Z,1027.93
2017-01-25T08:56:21.634Z,1027.93
2017-01-25T08:57:33.430Z,1027.95
2017-01-25T08:58:44.823Z,1027.95
2017-01-25T08:59:56.481Z,1027.91
2017-01-25T09:01:07.879Z,1027.96
2017-01-25T09:02:19.279Z,1027.93
2017-01-25T09:03:30.689Z,1027.99
2017-01-25T09:04:42.089Z,1027.98
2017-01-25T09:05:53.706Z,1027.99
2017-01-25T09:07:05.137Z,1027.98
2017-01-25T09:08:16.534Z,1028.01
2017-01-25T09:09:27.935Z,1028
2017-01-25T09:10:39.533Z,1027.97
2017-01-25T09:11:50.983Z,1028
2017-01-25T09:13:02.385Z,1028.03
2017-01-25T09:14:13.785Z,1027.99
2017-01-25T09:15:25.179Z,1028.02
2017-01-25T09:16:36.584Z,1028.07
2017-01-25T09:17:48.031Z,1028.05
2017-01-25T09:18:59.429Z,1028.01
2017-01-25T09:20:10.831Z,1028.05
2017-01-25T09:21:22.251Z,1028.03
2017-01-25T09:22:33.652Z,1027.98
2017-01-25T09:23:45.107Z,1027.94
2017-01-25T09:24:56.502Z,1027.97
2017-01-25T09:26:07.902Z,1027.99
2017-01-25T09:27:19.309Z,1027.99
2017-01-25T09:28:30.705Z,1027.97
2017-01-25T09:29:42.155Z,1027.99
2017-01-25T09:30:53.755Z,1028.02
2017-01-25T09:32:05.358Z,1027.99
2017-01-25T09:33:16.753Z,1027.92
2017-01-25T09:34:28.557Z,1027.9
2017-01-25T09:35:40.012Z,1027.94
2017-01-25T09:36:51.418Z,1027.97
2017-01-25T09:38:02.814Z,1028.02
2017-01-25T09:39:14.245Z,1027.97
2017-01-25T09:40:25.642Z,1027.87
2017-01-25T09:41:37.089Z,1027.96
2017-01-25T09:42:48.694Z,1027.97
2017-01-25T09:44:00.087Z,1027.95
2017-01-25T09:45:11.492Z,1027.99
2017-01-25T09:46:22.896Z,1028.02
2017-01-25T09:47:34.348Z,1027.99
2017-01-25T09:48:45.742Z,1028.03
2017-01-25T09:49:57.147Z,1028.06
2017-01-25T09:51:08.544Z,1028
2017-01-25T09:52:20.143Z,1028.05
2017-01-25T09:53:31.586Z,1028.04
2017-01-25T09:54:42.981Z,1028.06
2017-01-25T09:55:54.992Z,1028.04
2017-01-25T09:57:06.390Z,1028.15
2017-01-25T09:58:17.795Z,1028.16
2017-01-25T09:59:29.651Z,1028.14
2017-01-25T10:00:41.046Z,1028.13
2017-01-25T10:01:52.444Z,1028.14
2017-01-25T10:03:03.856Z,1028.13
2017-01-25T10:04:15.256Z,1028.15
2017-01-25T10:05:26.703Z,1028.14
2017-01-25T10:06:38.107Z,1028.1
2017-01-25T10:07:49.502Z,1028.04
2017-01-25T10:09:00.904Z,1027.99
2017-01-25T10:10:12.305Z,1027.95
2017-01-25T10:11:23.746Z,1027.93
2017-01-25T10:12:35.141Z,1027.95
2017-01-25T10:13:46.542Z,1027.93
2017-01-25T10:14:57.941Z,1027.91
2017-01-25T10:16:09.348Z,1027.9
2017-01-25T10:17:20.791Z,1027.91
2017-01-25T10:18:32.184Z,1027.9
2017-01-25T10:19:43.598Z,1027.86
2017-01-25T10:20:54.998Z,1027.93
2017-01-25T10:22:06.401Z,1027.91
2017-01-25T10:23:17.854Z,1027.89
2017-01-25T10:24:29.252Z,1027.92
2017-01-25T10:25:40.855Z,1027.92
2017-01-25T10:26:52.254Z,1027.9
2017-01-25T10:28:03.670Z,1027.93
2017-01-25T10:29:15.120Z,1027.95
2017-01-25T10:30:26.521Z,1027.96
2017-01-25T10:31:38.121Z,1027.94
2017-01-25T10:32:49.510Z,1027.91
2017-01-25T10:34:00.906Z,1027.9
2017-01-25T10:35:12.355Z,1027.84
2017-01-25T10:36:23.741Z,1027.83
2017-01-25T10:37:35.141Z,1027.79
2017-01-25T10:38:46.737Z,1027.77
2017-01-25T10:39:58.131Z,1027.76
2017-01-25T10:41:09.580Z,1027.76
2017-01-25T10:42:21.181Z,1027.69
2017-01-25T10:43:32.581Z,1027.67
2017-01-25T10:44:43.978Z,1027.67
2017-01-25T10:45:55.383Z,1027.68
2017-01-25T10:47:06.837Z,1027.63
2017-01-25T10:48:18.238Z,1027.63
2017-01-25T10:49:29.661Z,1027.6
2017-01-25T10:50:41.059Z,1027.57
2017-01-25T10:51:52.486Z,1027.51
2017-01-25T10:53:03.928Z,1027.53
2017-01-25T10:54:15.524Z,1027.56
2017-01-25T10:55:26.925Z,1027.59
2017-01-25T10:56:38.323Z,1027.51
2017-01-25T10:57:49.724Z,1027.53
2017-01-25T10:59:01.170Z,1027.54
2017-01-25T11:00:12.570Z,1027.44
2017-01-25T11:01:23.969Z,1027.48
2017-01-25T11:02:35.373Z,1027.47
2017-01-25T11:03:46.773Z,1027.47
2017-01-25T11:04:58.224Z,1027.44
2017-01-25T11:06:09.628Z,1027.42
2017-01-25T11:07:21.020Z,1027.43
2017-01-25T11:08:32.420Z,1027.45
2017-01-25T11:09:44.027Z,1027.43
2017-01-25T11:10:55.503Z,1027.39
2017-01-25T11:12:07.100Z,1027.39
2017-01-25T11:13:18.509Z,1027.41
2017-01-25T11:14:29.907Z,1027.43
2017-01-25T11:15:41.308Z,1027.38
2017-01-25T11:16:52.962Z,1027.36
2017-01-25T11:18:04.357Z,1027.32
2017-01-25T11:19:15.759Z,1027.34
2017-01-25T11:20:27.157Z,1027.31
2017-01-25T11:21:38.565Z,1027.31
2017-01-25T11:22:50.206Z,1027.28
2017-01-25T11:24:01.829Z,1027.24
2017-01-25T11:25:13.238Z,1027.24
2017-01-25T11:26:24.645Z,1027.25
2017-01-25T11:27:36.045Z,1027.2
2017-01-25T11:28:47.496Z,1027.19
2017-01-25T11:29:58.890Z,1027.16
2017-01-25T11:31:10.293Z,1027.13
2017-01-25T11:32:21.693Z,1027.09
2017-01-25T11:33:33.089Z,1027.07
2017-01-25T11:34:44.736Z,1027.08
2017-01-25T11:35:56.129Z,1027.09
2017-01-25T11:37:07.518Z,1027.02
2017-01-25T11:38:18.921Z,1027.03
2017-01-25T11:39:30.318Z,1027.03
2017-01-25T11:40:41.759Z,1027.05
2017-01-25T11:41:53.161Z,1027.03
2017-01-25T11:43:04.780Z,1027.02
2017-01-25T11:44:16.186Z,1027.01
2017-01-25T11:45:27.580Z,1027
2017-01-25T11:46:39.025Z,1026.94
2017-01-25T11:47:50.416Z,1026.9
2017-01-25T11:49:01.816Z,1026.88
2017-01-25T11:50:13.403Z,1026.91
2017-01-25T11:51:24.802Z,1026.84
2017-01-25T11:52:36.455Z,1026.88
2017-01-25T11:53:47.855Z,1026.86
2017-01-25T11:54:59.257Z,1026.86
2017-01-25T11:56:10.659Z,1026.85
2017-01-25T11:57:22.068Z,1026.81
2017-01-25T11:58:33.512Z,1026.8
2017-01-25T11:59:44.917Z,1026.8
2017-01-25T12:00:56.313Z,1026.75
2017-01-25T12:02:07.709Z,1026.68
2017-01-25T12:03:19.148Z,1026.73
2017-01-25T12:04:30.585Z,1026.66
2017-01-25T12:05:41.982Z,1026.58
2017-01-25T12:06:53.385Z,1026.6
2017-01-25T12:08:04.794Z,1026.63
2017-01-25T12:09:16.391Z,1026.59
2017-01-25T12:10:28.040Z,1026.63
2017-01-25T12:11:39.437Z,1026.61
2017-01-25T12:12:50.838Z,1026.59
2017-01-25T12:14:02.241Z,1026.55
2017-01-25T12:15:13.642Z,1026.58
2017-01-25T12:16:25.285Z,1026.49
2017-01-25T12:17:36.697Z,1026.47
2017-01-25T12:18:48.099Z,1026.49
2017-01-25T12:19:59.494Z,1026.53
2017-01-25T12:21:10.896Z,1026.47
2017-01-25T12:22:22.350Z,1026.46
2017-01-25T12:23:33.952Z,1026.5
2017-01-25T12:24:45.352Z,1026.49
2017-01-25T12:25:56.752Z,1026.5
2017-01-25T12:27:08.153Z,1026.49
2017-01-25T12:28:19.601Z,1026.44
2017-01-25T12:29:30.997Z,1026.46
2017-01-25T12:30:42.597Z,1026.44
2017-01-25T12:31:53.994Z,1026.44
2017-01-25T12:33:05.394Z,1026.41
2017-01-25T12:34:16.834Z,1026.41
2017-01-25T12:35:28.234Z,1026.4
2017-01-25T12:36:40.240Z,1026.39
2017-01-25T12:37:51.651Z,1026.38
2017-01-25T12:39:03.052Z,1026.36
2017-01-25T12:40:14.504Z,1026.35
2017-01-25T12:41:25.901Z,1026.24
2017-01-25T12:42:37.493Z,1026.27
2017-01-25T12:43:49.087Z,1026.28
2017-01-25T12:45:00.481Z,1026.29
2017-01-25T12:46:11.923Z,1026.21
2017-01-25T12:47:23.325Z,1026.26
2017-01-25T12:48:34.727Z,1026.19
2017-01-25T12:49:46.332Z,1026.17
2017-01-25T12:50:57.733Z,1026.21
2017-01-25T12:52:09.180Z,1026.16
2017-01-25T12:53:20.783Z,1026.16
2017-01-25T12:54:32.185Z,1026.15
2017-01-25T12:55:43.589Z,1026.1
2017-01-25T12:56:54.994Z,1026.09
2017-01-25T12:58:06.638Z,1026.08
2017-01-25T12:59:18.235Z,1026.1
2017-01-25T13:00:29.631Z,1026.07
2017-01-25T13:01:41.034Z,1026.06
2017-01-25T13:02:52.433Z,1026.07
2017-01-25T13:04:03.882Z,1026.08
2017-01-25T13:05:15.280Z,1026.15
2017-01-25T13:06:26.677Z,1026.07
2017-01-25T13:07:38.071Z,1026.09
2017-01-25T13:08:49.471Z,1026.13
2017-01-25T13:10:01.117Z,1026.17
2017-01-25T13:11:12.512Z,1026.07
2017-01-25T13:12:23.915Z,1026.09
2017-01-25T13:13:35.317Z,1026.14
2017-01-25T13:14:46.719Z,1026.06
2017-01-25T13:15:58.374Z,1026.07
2017-01-25T13:17:09.775Z,1026.1
2017-01-25T13:18:21.170Z,1026.18
2017-01-25T13:19:32.568Z,1026.15
2017-01-25T13:20:43.960Z,1026.08
2017-01-25T13:21:55.611Z,1026.1
2017-01-25T13:23:07.610Z,1026.02
2017-01-25T13:24:19.216Z,1025.99
2017-01-25T13:25:30.638Z,1025.97
2017-01-25T13:26:42.038Z,1025.94
2017-01-25T13:27:53.482Z,1025.97
2017-01-25T13:29:04.884Z,1026.01
2017-01-25T13:30:16.288Z,1025.93
2017-01-25T13:31:27.684Z,1026
2017-01-25T13:32:39.085Z,1025.91
2017-01-25T13:33:50.535Z,1025.95
2017-01-25T13:35:02.133Z,1025.94
2017-01-25T13:36:13.528Z,1025.97
2017-01-25T13:37:24.915Z,1025.88
2017-01-25T13:38:36.516Z,1025.97
2017-01-25T13:39:47.962Z,1025.93
2017-01-25T13:40:59.387Z,1025.93
2017-01-25T13:42:10.987Z,1025.89
2017-01-25T13:43:22.387Z,1025.94
2017-01-25T13:44:33.777Z,1025.91
2017-01-25T13:45:45.223Z,1025.89
2017-01-25T13:46:57.025Z,1025.85
2017-01-25T13:48:08.425Z,1025.87
2017-01-25T13:49:19.828Z,1025.85
2017-01-25T13:50:31.231Z,1025.86
2017-01-25T13:51:42.675Z,1025.87
2017-01-25T13:52:54.066Z,1025.87
2017-01-25T13:54:05.466Z,1025.86
2017-01-25T13:55:16.864Z,1025.88
2017-01-25T13:56:28.293Z,1025.81
2017-01-25T13:57:39.961Z,1025.81
2017-01-25T13:58:51.566Z,1025.8
2017-01-25T14:00:03.175Z,1025.79
2017-01-25T14:01:14.570Z,1025.75
2017-01-25T14:02:25.966Z,1025.75
2017-01-25T14:03:37.413Z,1025.76
2017-01-25T14:04:48.815Z,1025.79
2017-01-25T14:06:00.210Z,1025.71
2017-01-25T14:07:11.604Z,1025.77
2017-01-25T14:08:23.010Z,1025.8
2017-01-25T14:09:34.454Z,1025.77
2017-01-25T14:10:45.876Z,1025.73
2017-01-25T14:11:57.270Z,1025.74
2017-01-25T14:13:08.672Z,1025.75
2017-01-25T14:14:20.072Z,1025.77
2017-01-25T14:15:31.934Z,1025.72
2017-01-25T14:16:43.330Z,1025.69
2017-01-25T14:17:54.742Z,1025.7
2017-01-25T14:19:06.163Z,1025.7
2017-01-25T14:20:17.559Z,1025.71
2017-01-25T14:21:29.006Z,1025.66
2017-01-25T14:22:40.397Z,1025.68
2017-01-25T14:23:51.790Z,1025.63
2017-01-25T14:25:03.190Z,1025.63
2017-01-25T14:26:14.589Z,1025.63
2017-01-25T14:27:26.436Z,1025.6